Aviation Digital Data Service (ADDS)

Output produced by METARs form (2106 UTC 24 March 2019)
found at http://www.aviationweather.gov/metar/data/
 
TAF MWCB 241700Z 2418/2518 11013KT 9000 SHRA SCT016 BKN030 
     BECMG 2502/2504 08010KT 9999 SCT018
       
TAF MWCR 241700Z 2418/2518 11013KT 9000 SHRA SCT016 BKN030 
     BECMG 2502/2504 08010KT 9999 SCT018